TFM - Tactical Decision Aid
ID: Runway Winds: CIG/VIS Threshold:

KJFK - New York/Kennedy Int, NY, US

Updated at: 0141 UTC 12 May 2021
Latest TAF at: 2336 UTC 11 May 2021

TAF Board

Time0051Z 12/02Z 12/03Z 12/04Z 12/05Z 12/06Z 12/07Z 12/08Z 12/09Z 12/10Z 12/11Z 12/12Z 12/13Z 12/14Z>>
Type OBS PRVL PRVL PRVL PRVL PRVL PRVL PRVL PRVL PRVL PRVL PRVL PRVL PRVL
VIS 10 >6 >6 >6 >6 >6 >6 >6 >6 >6 >6 >6 >6 >6
CIG 95 100 100 100 100 100 100 100 100 100 -- -- -- --
Cover BKN BKN BKN BKN BKN BKN BKN BKN BKN BKN SCT SCT SCT SCT
FltCat VFR VFR VFR VFR VFR VFR VFR VFR VFR VFR VFR VFR VFR VFR
WX -- -- -- -- -- -- -- -- -- -- -- -- -- --
WDir 310 300 300 300 300 300 300 300 300 300 320 320 320 320
WSpd 13 13 13 13 13 13 13 13 13 13 14 14 14 14
WGst -- -- -- -- -- -- -- -- -- -- 21 21 21 21

TDA Impact Legend

  None Marginal Slight Moderate High
Visibility (sm) >5 3≤X≤5 1≤X<3 0.5≤X<1 <0.5
Ceiling (100 ft) >30 10≤X≤30 4≤X<10 2≤X<4 <2
Wind Speed (kt) <15 15≤X<25 25≤X<30 ≥30
Wind Gust (kt) <15 15≤X<25 25≤X<35 ≥35
Weather No Wx Reported VCTS -TS,-FZRA TS,FZRA +TS,+FZRA
TAF
KJFK 112336Z 1200/1306 29013G21KT P6SM VCSH BKN060
  FM120100 30013KT P6SM SCT060 BKN100 BKN250
  FM121100 32014G21KT P6SM SCT050 SCT100
  FM121900 29012G18KT P6SM SCT250
  FM122200 32011KT P6SM SCT250
  FM130200 33007KT P6SM FEW250


METAR
KJFK 120051Z 31013KT 10SM FEW075 BKN095 BKN250 15/01 A3004 RMK AO2 SLP171 T01500006 $
KJFK 112351Z 27014KT 10SM FEW040 SCT075 BKN090 BKN130 BKN250 16/01 A3002 RMK AO2 SLP165 VCSH W T01560006 10194 20133 53009 $
KJFK 112251Z 30016KT 10SM FEW070 BKN100 16/01 A3000 RMK AO2 SLP159 VIRGA N-S T01610006 $

Radar Display
Forecast Discussion